createdAt,value
2022-10-09T00:02:19.568Z,102569.34
2022-10-09T00:04:46.114Z,102564.69
2022-10-09T00:07:16.136Z,102565.94
2022-10-09T00:09:42.597Z,102566.81
2022-10-09T00:12:13.047Z,102565.63
2022-10-09T00:14:39.580Z,102562.69
2022-10-09T00:17:06.214Z,102561.94
2022-10-09T00:19:32.757Z,102566.28
2022-10-09T00:21:59.248Z,102569.66
2022-10-09T00:24:25.706Z,102562.00
2022-10-09T00:26:52.168Z,102566.72
2022-10-09T00:29:18.642Z,102565.38
2022-10-09T00:31:45.188Z,102568.94
2022-10-09T00:34:11.678Z,102570.53
2022-10-09T00:36:38.159Z,102571.66
2022-10-09T00:39:04.646Z,102568.09
2022-10-09T00:41:31.750Z,102567.09
2022-10-09T00:46:46.304Z,102573.38
2022-10-09T00:49:26.186Z,102569.19
2022-10-09T00:51:53.720Z,102574.63
2022-10-09T00:54:23.004Z,102572.53
2022-10-09T00:56:50.005Z,102570.53
2022-10-09T00:59:17.228Z,102569.69
2022-10-09T01:01:45.157Z,102571.03
2022-10-09T01:04:11.909Z,102567.91
2022-10-09T01:06:44.416Z,102562.84
2022-10-09T01:09:18.269Z,102561.09
2022-10-09T01:23:23.837Z,102542.63
2022-10-09T01:29:08.322Z,102553.50
2022-10-09T01:31:42.581Z,102546.47
2022-10-09T01:34:10.626Z,102545.13
2022-10-09T01:39:21.437Z,102542.16
2022-10-09T01:41:48.833Z,102538.56
2022-10-09T01:44:20.518Z,102534.44
2022-10-09T01:46:47.445Z,102528.31
2022-10-09T01:49:38.597Z,102529.41
2022-10-09T01:52:20.565Z,102525.59
2022-10-09T01:54:59.135Z,102523.22
2022-10-09T02:00:26.018Z,102520.72
2022-10-09T02:02:53.624Z,102512.72
2022-10-09T02:05:23.900Z,102515.81
2022-10-09T02:07:50.672Z,102517.81
2022-10-09T02:10:18.410Z,102509.78
2022-10-09T02:12:52.337Z,102513.50
2022-10-09T02:15:20.598Z,102509.78
2022-10-09T02:17:49.331Z,102511.25
2022-10-09T02:20:17.235Z,102512.84
2022-10-09T02:22:44.078Z,102508.00
2022-10-09T02:25:10.747Z,102502.06
2022-10-09T02:27:37.328Z,102504.53
2022-10-09T02:30:06.579Z,102497.81
2022-10-09T02:32:33.159Z,102500.28
2022-10-09T02:34:59.677Z,102503.38
2022-10-09T02:37:26.139Z,102495.56
2022-10-09T02:39:52.616Z,102507.78
2022-10-09T02:42:19.144Z,102502.56
2022-10-09T02:44:45.615Z,102500.22
2022-10-09T02:47:12.111Z,102498.72
2022-10-09T02:49:38.645Z,102492.78
2022-10-09T02:52:13.416Z,102495.88
2022-10-09T02:54:39.879Z,102496.94
2022-10-09T02:57:06.526Z,102489.06
2022-10-09T03:02:13.989Z,102495.91
2022-10-09T03:04:40.644Z,102488.97
2022-10-09T03:07:07.396Z,102482.84
2022-10-09T03:09:34.110Z,102487.50
2022-10-09T03:12:00.807Z,102486.97
2022-10-09T03:14:27.269Z,102485.25
2022-10-09T03:16:53.740Z,102476.47
2022-10-09T03:19:20.422Z,102477.56
2022-10-09T03:24:27.798Z,102480.63
2022-10-09T03:26:54.345Z,102480.72
2022-10-09T03:29:20.892Z,102476.41
2022-10-09T03:31:52.406Z,102477.41
2022-10-09T03:39:41.583Z,102477.19
2022-10-09T03:42:08.134Z,102478.31
2022-10-09T03:44:34.663Z,102481.16
2022-10-09T03:47:01.186Z,102478.66
2022-10-09T03:52:08.073Z,102480.50
2022-10-09T03:54:34.566Z,102477.81
2022-10-09T03:57:01.300Z,102471.16
2022-10-09T03:59:27.847Z,102470.94
2022-10-09T04:01:54.423Z,102476.22
2022-10-09T04:04:20.929Z,102481.22
2022-10-09T04:09:27.017Z,102486.03
2022-10-09T04:14:34.319Z,102483.44
2022-10-09T04:17:03.219Z,102490.16
2022-10-09T04:19:33.686Z,102485.97
2022-10-09T04:22:11.470Z,102479.78
2022-10-09T04:24:38.098Z,102493.97
2022-10-09T04:27:12.678Z,102484.19
2022-10-09T04:29:39.493Z,102478.31
2022-10-09T04:34:49.220Z,102468.22
2022-10-09T04:37:15.734Z,102472.38
2022-10-09T04:39:42.773Z,102468.31
2022-10-09T04:42:09.269Z,102464.41
2022-10-09T04:44:35.734Z,102464.41
2022-10-09T04:47:08.149Z,102462.91
2022-10-09T04:49:37.058Z,102461.16
2022-10-09T04:52:06.786Z,102463.66
2022-10-09T04:54:33.349Z,102461.56
2022-10-09T04:56:59.913Z,102462.53
2022-10-09T04:59:26.379Z,102459.09
2022-10-09T05:01:52.897Z,102447.34
2022-10-09T05:04:19.912Z,102461.16
2022-10-09T05:06:46.451Z,102458.72
2022-10-09T05:09:12.944Z,102452.31
2022-10-09T05:14:20.029Z,102458.72
2022-10-09T05:17:11.745Z,102450.22
2022-10-09T05:19:33.520Z,102455.13
2022-10-09T05:22:00.816Z,102448.97
2022-10-09T05:24:28.151Z,102449.22
2022-10-09T05:26:54.767Z,102445.53
2022-10-09T05:29:21.504Z,102453.16
2022-10-09T05:31:49.682Z,102453.88
2022-10-09T05:34:16.453Z,102451.91
2022-10-09T05:36:42.984Z,102448.19
2022-10-09T05:39:09.615Z,102451.56
2022-10-09T05:41:36.096Z,102452.78
2022-10-09T05:44:03.535Z,102453.25
2022-10-09T05:46:30.516Z,102450.78
2022-10-09T05:49:00.613Z,102451.41
2022-10-09T05:51:29.959Z,102444.38
2022-10-09T05:53:57.095Z,102447.19
2022-10-09T05:56:35.081Z,102443.00
2022-10-09T05:59:06.299Z,102443.63
2022-10-09T06:01:35.153Z,102440.78
2022-10-09T06:04:02.502Z,102442.50
2022-10-09T06:09:12.725Z,102439.41
2022-10-09T06:11:40.308Z,102444.00
2022-10-09T06:16:50.291Z,102440.53
2022-10-09T06:19:26.323Z,102443.63
2022-10-09T06:21:52.873Z,102440.78
2022-10-09T06:24:27.894Z,102441.06
2022-10-09T06:26:56.697Z,102439.06
2022-10-09T06:29:23.539Z,102442.06
2022-10-09T06:31:50.109Z,102438.22
2022-10-09T06:34:16.822Z,102436.25
2022-10-09T06:36:43.521Z,102449.09
2022-10-09T06:39:10.304Z,102442.22
2022-10-09T06:41:36.857Z,102433.09
2022-10-09T06:44:05.319Z,102433.97
2022-10-09T06:49:01.432Z,102438.16
2022-10-09T06:51:28.824Z,102433.72
2022-10-09T06:53:58.149Z,102429.75
2022-10-09T06:56:26.717Z,102429.09
2022-10-09T07:01:40.121Z,102423.19
2022-10-09T07:04:12.869Z,102420.72
2022-10-09T07:06:46.545Z,102422.53
2022-10-09T07:09:14.246Z,102428.09
2022-10-09T07:11:43.463Z,102424.50
2022-10-09T07:16:54.105Z,102423.44
2022-10-09T07:19:21.735Z,102427.34
2022-10-09T07:21:49.608Z,102427.56
2022-10-09T07:24:17.379Z,102431.28
2022-10-09T07:26:45.603Z,102435.09
2022-10-09T07:29:14.112Z,102427.13
2022-10-09T07:31:40.621Z,102420.13
2022-10-09T07:36:48.311Z,102414.53
2022-10-09T07:39:14.876Z,102412.63
2022-10-09T07:41:41.750Z,102401.56
2022-10-09T07:46:58.003Z,102399.84
2022-10-09T07:52:05.047Z,102387.25
2022-10-09T07:59:56.062Z,102398.72
2022-10-09T08:02:22.652Z,102381.63
2022-10-09T08:07:37.388Z,102382.91
2022-10-09T08:10:13.387Z,102385.22
2022-10-09T08:12:48.703Z,102385.50
2022-10-09T08:15:15.525Z,102375.78
2022-10-09T08:17:42.054Z,102381.78
2022-10-09T08:22:50.452Z,102378.41
2022-10-09T08:25:17.267Z,102382.31
2022-10-09T08:27:53.317Z,102371.06
2022-10-09T08:30:27.820Z,102374.72
2022-10-09T08:32:54.299Z,102370.13
2022-10-09T08:35:20.882Z,102369.25
2022-10-09T08:41:16.987Z,102368.22
2022-10-09T08:43:46.630Z,102366.50
2022-10-09T08:46:20.852Z,102368.41
2022-10-09T08:48:48.622Z,102368.34
2022-10-09T08:51:24.506Z,102364.09
2022-10-09T08:53:59.225Z,102360.22
2022-10-09T08:56:26.679Z,102360.81
2022-10-09T08:58:53.900Z,102355.66
2022-10-09T09:01:30.379Z,102358.88
2022-10-09T09:04:33.238Z,102355.94
2022-10-09T09:07:03.392Z,102343.19
2022-10-09T09:09:55.187Z,102342.88
2022-10-09T09:12:48.339Z,102346.50
2022-10-09T09:16:12.381Z,102342.88
2022-10-09T09:18:47.569Z,102345.47
2022-10-09T09:21:22.777Z,102326.44
2022-10-09T09:23:50.144Z,102340.38
2022-10-09T09:26:20.699Z,102328.94
2022-10-09T09:28:50.599Z,102332.47
2022-10-09T09:31:26.493Z,102332.88
2022-10-09T09:34:14.206Z,102328.13
2022-10-09T09:36:53.064Z,102309.69
2022-10-09T09:42:14.823Z,102311.09
2022-10-09T09:45:00.456Z,102315.84
2022-10-09T09:47:33.799Z,102307.31
2022-10-09T09:50:02.251Z,102300.41
2022-10-09T09:52:31.256Z,102290.81
2022-10-09T09:54:58.639Z,102288.16
2022-10-09T10:00:22.055Z,102284.59
2022-10-09T10:05:35.799Z,102281.53
2022-10-09T10:08:15.784Z,102281.41
2022-10-09T10:10:46.480Z,102274.06
2022-10-09T10:13:16.621Z,102261.63
2022-10-09T10:15:56.697Z,102275.53
2022-10-09T10:18:25.176Z,102268.50
2022-10-09T10:20:57.049Z,102263.28
2022-10-09T10:23:33.270Z,102273.91
2022-10-09T10:26:03.548Z,102257.78
2022-10-09T10:28:45.994Z,102258.34
2022-10-09T10:31:18.665Z,102251.03
2022-10-09T10:33:50.178Z,102247.38
2022-10-09T10:36:17.030Z,102245.94
2022-10-09T10:38:54.801Z,102236.63
2022-10-09T10:41:26.483Z,102237.38
2022-10-09T10:44:34.775Z,102231.16
2022-10-09T10:47:07.204Z,102230.56
2022-10-09T10:52:40.768Z,102221.22
2022-10-09T10:55:26.788Z,102214.47
2022-10-09T10:58:15.290Z,102207.03
2022-10-09T11:00:47.019Z,102203.53
2022-10-09T11:03:34.466Z,102196.50
2022-10-09T11:06:14.722Z,102196.53
2022-10-09T11:08:50.396Z,102186.31
2022-10-09T11:14:37.090Z,102173.47
2022-10-09T11:17:18.856Z,102173.69
2022-10-09T11:19:56.452Z,102176.53
2022-10-09T11:22:32.889Z,102169.09
2022-10-09T11:28:09.673Z,102159.44
2022-10-09T11:30:50.294Z,102149.06
2022-10-09T11:33:39.220Z,102146.78
2022-10-09T11:36:12.236Z,102153.34
2022-10-09T11:38:44.526Z,102151.25
2022-10-09T11:41:11.880Z,102139.81
2022-10-09T11:46:41.602Z,102137.53
2022-10-09T11:49:16.156Z,102125.09
2022-10-09T11:52:03.639Z,102126.84
2022-10-09T11:54:41.629Z,102118.66
2022-10-09T11:57:15.604Z,102119.25
2022-10-09T11:59:42.761Z,102118.50
2022-10-09T12:02:39.346Z,102112.28
2022-10-09T12:05:32.434Z,102106.56
2022-10-09T12:08:19.193Z,102102.59
2022-10-09T12:10:53.362Z,102092.06
2022-10-09T12:13:39.818Z,102087.50
2022-10-09T12:16:08.338Z,102088.75
2022-10-09T12:18:38.626Z,102074.03
2022-10-09T12:21:15.874Z,102074.69
2022-10-09T12:23:42.571Z,102060.16
2022-10-09T12:29:01.554Z,102051.78
2022-10-09T12:31:32.444Z,102053.69
2022-10-09T12:34:13.302Z,102044.97
2022-10-09T12:36:39.766Z,102044.69
2022-10-09T12:39:23.738Z,102023.81
2022-10-09T12:41:52.735Z,102036.31
2022-10-09T12:44:43.563Z,102028.09
2022-10-09T12:47:23.683Z,102011.53
2022-10-09T12:50:15.720Z,102010.22
2022-10-09T12:52:50.995Z,102005.41
2022-10-09T12:58:16.190Z,101997.28
2022-10-09T13:00:43.010Z,101985.44
2022-10-09T13:03:36.343Z,101964.72
2022-10-09T13:06:07.421Z,101969.34
2022-10-09T13:08:42.776Z,101964.22
2022-10-09T13:11:13.115Z,101972.47
2022-10-09T13:13:40.165Z,101961.91
2022-10-09T13:16:09.648Z,101960.16
2022-10-09T13:21:24.959Z,101942.22
2022-10-09T13:23:51.583Z,101936.63
2022-10-09T13:26:38.752Z,101931.91
2022-10-09T13:29:14.027Z,101932.34
2022-10-09T13:34:25.432Z,101913.88
2022-10-09T13:36:51.978Z,101906.66
2022-10-09T13:39:18.618Z,101912.81
2022-10-09T13:41:46.274Z,101907.94
2022-10-09T13:44:12.818Z,101912.34
2022-10-09T13:46:39.378Z,101909.66
2022-10-09T13:51:46.353Z,101900.31
2022-10-09T13:54:12.805Z,101898.59
2022-10-09T13:56:39.345Z,101895.59
2022-10-09T14:01:46.858Z,101877.97
2022-10-09T14:04:13.422Z,101877.50
2022-10-09T14:06:41.783Z,101869.66
2022-10-09T14:09:12.161Z,101859.03
2022-10-09T14:14:33.378Z,101863.88
2022-10-09T14:16:59.881Z,101856.50
2022-10-09T14:19:27.949Z,101854.78
2022-10-09T14:21:55.432Z,101855.84
2022-10-09T14:24:22.001Z,101846.56
2022-10-09T14:29:29.465Z,101835.06
2022-10-09T14:31:55.932Z,101849.34
2022-10-09T14:34:22.453Z,101833.47
2022-10-09T14:36:49.143Z,101833.66
2022-10-09T14:39:16.145Z,101826.44
2022-10-09T14:41:42.624Z,101817.84
2022-10-09T14:44:09.271Z,101826.44
2022-10-09T14:46:37.775Z,101819.03
2022-10-09T14:49:07.581Z,101809.25
2022-10-09T14:51:37.059Z,101807.13
2022-10-09T14:54:04.462Z,101799.13
2022-10-09T14:56:34.884Z,101801.88
2022-10-09T14:59:01.453Z,101793.78
2022-10-09T15:01:35.015Z,101793.66
2022-10-09T15:04:02.862Z,101792.06
2022-10-09T15:09:03.036Z,101778.53
2022-10-09T15:14:19.080Z,101775.91
2022-10-09T15:16:45.621Z,101764.69
2022-10-09T15:19:20.047Z,101771.09
2022-10-09T15:21:46.758Z,101757.22
2022-10-09T15:24:17.005Z,101758.22
2022-10-09T15:32:04.418Z,101760.41
2022-10-09T15:34:31.056Z,101752.78
2022-10-09T15:42:18.937Z,101741.75
2022-10-09T15:44:45.408Z,101744.47
2022-10-09T15:47:16.447Z,101730.38
2022-10-09T15:49:44.638Z,101731.94
2022-10-09T15:54:54.990Z,101721.47
2022-10-09T16:00:02.135Z,101714.28
2022-10-09T16:02:28.974Z,101701.34
2022-10-09T16:07:36.280Z,101698.47
2022-10-09T16:10:02.751Z,101699.88
2022-10-09T16:15:14.344Z,101690.06
2022-10-09T16:17:40.836Z,101695.44
2022-10-09T16:20:07.951Z,101694.13
2022-10-09T16:22:34.436Z,101681.38
2022-10-09T16:25:00.984Z,101681.31
2022-10-09T16:27:27.566Z,101689.06
2022-10-09T16:29:55.082Z,101683.47
2022-10-09T16:32:22.023Z,101687.47
2022-10-09T16:34:49.898Z,101686.75
2022-10-09T16:39:57.179Z,101678.81
2022-10-09T16:42:23.677Z,101679.94
2022-10-09T16:44:51.489Z,101681.44
2022-10-09T16:47:18.154Z,101674.66
2022-10-09T16:49:44.846Z,101673.59
2022-10-09T16:52:11.409Z,101676.84
2022-10-09T16:54:39.351Z,101666.50
2022-10-09T16:57:07.128Z,101669.72
2022-10-09T16:59:33.812Z,101665.94
2022-10-09T17:02:02.209Z,101658.91
2022-10-09T17:04:28.683Z,101669.78
2022-10-09T17:07:03.070Z,101662.66
2022-10-09T17:09:30.237Z,101657.84
2022-10-09T17:11:57.129Z,101661.53
2022-10-09T17:14:27.400Z,101660.69
2022-10-09T17:16:54.528Z,101652.81
2022-10-09T17:19:21.092Z,101660.56
2022-10-09T17:24:28.450Z,101660.94
2022-10-09T17:26:55.207Z,101661.47
2022-10-09T17:29:22.243Z,101660.28
2022-10-09T17:34:45.710Z,101659.47
2022-10-09T17:37:13.670Z,101663.81
2022-10-09T17:40:49.377Z,101673.34
2022-10-09T17:46:09.618Z,101665.13
2022-10-09T17:48:38.286Z,101663.69
2022-10-09T17:51:12.885Z,101665.94
2022-10-09T17:56:20.402Z,101661.84
2022-10-09T17:59:01.987Z,101657.75
2022-10-09T18:04:15.078Z,101660.56
2022-10-09T18:12:03.238Z,101652.47
2022-10-09T18:19:59.173Z,101647.75
2022-10-09T18:22:25.830Z,101650.91
2022-10-09T18:24:54.447Z,101649.88
2022-10-09T18:27:21.011Z,101649.88
2022-10-09T18:29:55.690Z,101651.38
2022-10-09T18:32:22.266Z,101647.81
2022-10-09T18:34:48.976Z,101650.91
2022-10-09T18:40:09.886Z,101649.25
2022-10-09T18:45:25.372Z,101627.56
2022-10-09T18:50:32.689Z,101631.69
2022-10-09T18:58:22.260Z,101616.81
2022-10-09T19:00:50.726Z,101619.41
2022-10-09T19:03:17.449Z,101615.81
2022-10-09T19:05:44.934Z,101610.38
2022-10-09T19:08:11.850Z,101608.84
2022-10-09T19:10:38.367Z,101598.75
2022-10-09T19:13:04.866Z,101597.72
2022-10-09T19:15:31.493Z,101598.41
2022-10-09T19:17:58.040Z,101589.38
2022-10-09T19:20:24.593Z,101584.56
2022-10-09T19:22:52.166Z,101582.56
2022-10-09T19:25:26.390Z,101571.97
2022-10-09T19:27:53.061Z,101582.91
2022-10-09T19:30:19.712Z,101566.81
2022-10-09T19:32:48.323Z,101578.97
2022-10-09T19:37:55.721Z,101570.78
2022-10-09T19:40:35.145Z,101562.91
2022-10-09T19:43:09.563Z,101560.00
2022-10-09T19:45:36.642Z,101559.19
2022-10-09T19:48:03.308Z,101556.97
2022-10-09T19:50:30.175Z,101552.00
2022-10-09T19:53:04.520Z,101552.53
2022-10-09T19:55:33.140Z,101551.63
2022-10-09T20:00:43.137Z,101552.34
2022-10-09T20:03:17.635Z,101554.56
2022-10-09T20:08:24.649Z,101551.97
2022-10-09T20:10:51.132Z,101537.13
2022-10-09T20:13:17.621Z,101540.53
2022-10-09T20:18:24.478Z,101535.94
2022-10-09T20:20:50.995Z,101529.94
2022-10-09T20:23:17.495Z,101539.84
2022-10-09T20:25:50.161Z,101534.22
2022-10-09T20:28:16.666Z,101543.44
2022-10-09T20:33:23.829Z,101530.16
2022-10-09T20:35:54.091Z,101528.44
2022-10-09T20:38:25.537Z,101524.34
2022-10-09T20:40:52.547Z,101520.59
2022-10-09T20:43:19.458Z,101519.75
2022-10-09T20:45:46.405Z,101522.13
2022-10-09T20:50:53.398Z,101518.56
2022-10-09T20:53:19.972Z,101525.03
2022-10-09T20:55:46.479Z,101512.91
2022-10-09T20:58:12.947Z,101513.06
2022-10-09T21:00:43.415Z,101507.78
2022-10-09T21:03:12.452Z,101510.53
2022-10-09T21:05:43.367Z,101511.88
2022-10-09T21:08:10.341Z,101514.44
2022-10-09T21:10:46.032Z,101500.78
2022-10-09T21:13:12.717Z,101504.91
2022-10-09T21:15:43.802Z,101500.94
2022-10-09T21:18:11.149Z,101493.91
2022-10-09T21:20:39.453Z,101490.66
2022-10-09T21:23:05.958Z,101493.59
2022-10-09T21:25:40.503Z,101484.38
2022-10-09T21:28:07.029Z,101492.22
2022-10-09T21:33:19.079Z,101489.81
2022-10-09T21:35:48.350Z,101485.03
2022-10-09T21:38:17.256Z,101485.03
2022-10-09T21:40:44.866Z,101486.38
2022-10-09T21:43:11.379Z,101491.16
2022-10-09T21:51:00.593Z,101490.44
2022-10-09T21:55:52.569Z,101485.00
2022-10-09T22:03:55.239Z,101494.19
2022-10-09T22:09:05.145Z,101488.56
2022-10-09T22:14:20.656Z,101475.97
2022-10-09T22:19:36.514Z,101461.47
2022-10-09T22:22:03.004Z,101467.13
2022-10-09T22:24:30.331Z,101461.84
2022-10-09T22:26:57.421Z,101458.06
2022-10-09T22:29:25.067Z,101465.06
2022-10-09T22:31:51.663Z,101456.38
2022-10-09T22:34:18.649Z,101458.03
2022-10-09T22:39:26.625Z,101447.25
2022-10-09T22:41:54.152Z,101447.75
2022-10-09T22:44:20.979Z,101440.91
2022-10-09T22:47:00.441Z,101444.50
2022-10-09T22:49:27.509Z,101440.56
2022-10-09T22:51:54.020Z,101442.78
2022-10-09T22:54:32.260Z,101447.69
2022-10-09T22:57:12.089Z,101432.03
2022-10-09T22:59:38.606Z,101431.91
2022-10-09T23:02:17.014Z,101435.81
2022-10-09T23:07:33.523Z,101442.63
2022-10-09T23:10:00.184Z,101435.44
2022-10-09T23:12:26.676Z,101434.06
2022-10-09T23:14:53.400Z,101426.06
2022-10-09T23:17:23.766Z,101429.09
2022-10-09T23:20:00.102Z,101428.78
2022-10-09T23:22:35.292Z,101424.66
2022-10-09T23:25:02.603Z,101419.72
2022-10-09T23:27:29.346Z,101410.69
2022-10-09T23:29:55.795Z,101413.44
2022-10-09T23:32:22.263Z,101417.34
2022-10-09T23:37:29.662Z,101409.50
2022-10-09T23:39:56.168Z,101411.19
2022-10-09T23:45:03.656Z,101414.94
2022-10-09T23:47:38.122Z,101413.75
2022-10-09T23:50:06.358Z,101394.47
2022-10-09T23:52:37.177Z,101394.47
2022-10-09T23:55:03.943Z,101396.84
2022-10-09T23:57:30.492Z,101391.22
2022-10-09T23:59:56.964Z,101388.31
